createdAt,value
2022-08-27T00:02:08.628Z,22.17
2022-08-27T00:04:37.449Z,22.21
2022-08-27T00:07:07.023Z,22.21
2022-08-27T00:09:35.648Z,22.14
2022-08-27T00:12:05.187Z,22.19
2022-08-27T00:14:33.244Z,22.18
2022-08-27T00:17:01.320Z,22.14
2022-08-27T00:19:30.816Z,22.14
2022-08-27T00:21:58.789Z,22.10
2022-08-27T00:24:26.668Z,22.11
2022-08-27T00:26:54.766Z,22.11
2022-08-27T00:29:22.584Z,22.09
2022-08-27T00:31:53.396Z,22.14
2022-08-27T00:34:23.142Z,22.06
2022-08-27T00:36:51.708Z,22.06
2022-08-27T00:39:20.596Z,22.13
2022-08-27T00:41:48.642Z,22.07
2022-08-27T00:44:17.327Z,22.14
2022-08-27T00:46:50.162Z,22.10
2022-08-27T00:49:26.960Z,22.09
2022-08-27T00:52:01.748Z,22.07
2022-08-27T00:54:30.447Z,22.09
2022-08-27T00:56:59.518Z,22.05
2022-08-27T00:59:33.036Z,22.06
2022-08-27T01:02:19.566Z,22.03
2022-08-27T01:05:09.574Z,22.07
2022-08-27T01:07:43.493Z,22.05
2022-08-27T01:10:17.028Z,22.10
2022-08-27T01:12:45.092Z,22.06
2022-08-27T01:15:23.468Z,22.05
2022-08-27T01:17:54.351Z,22.02
2022-08-27T01:20:30.117Z,22.00
2022-08-27T01:23:16.298Z,22.02
2022-08-27T01:25:45.967Z,22.03
2022-08-27T01:28:14.539Z,22.04
2022-08-27T01:30:42.835Z,22.02
2022-08-27T01:33:14.922Z,21.95
2022-08-27T01:35:48.616Z,21.89
2022-08-27T01:38:19.352Z,21.87
2022-08-27T01:41:00.326Z,21.85
2022-08-27T01:43:30.284Z,21.71
2022-08-27T01:45:58.626Z,21.73
2022-08-27T01:48:26.391Z,21.65
2022-08-27T01:50:54.175Z,21.64
2022-08-27T01:53:24.740Z,21.57
2022-08-27T01:55:53.966Z,21.49
2022-08-27T01:58:25.288Z,21.45
2022-08-27T02:00:56.980Z,21.37
2022-08-27T02:03:25.175Z,21.38
2022-08-27T02:05:53.816Z,21.40
2022-08-27T02:08:22.279Z,21.40
2022-08-27T02:10:50.992Z,21.34
2022-08-27T02:13:19.239Z,21.37
2022-08-27T02:15:46.975Z,21.38
2022-08-27T02:18:15.215Z,21.39
2022-08-27T02:20:46.280Z,21.37
2022-08-27T02:23:16.256Z,21.40
2022-08-27T02:25:44.935Z,21.39
2022-08-27T02:28:12.900Z,21.37
2022-08-27T02:30:41.127Z,21.37
2022-08-27T02:33:10.169Z,21.40
2022-08-27T02:35:44.004Z,21.34
2022-08-27T02:38:13.424Z,21.29
2022-08-27T02:40:41.314Z,21.23
2022-08-27T02:43:09.777Z,21.27
2022-08-27T02:45:43.517Z,21.27
2022-08-27T02:48:11.843Z,21.25
2022-08-27T02:50:39.503Z,21.21
2022-08-27T02:53:07.693Z,21.16
2022-08-27T02:55:36.515Z,21.12
2022-08-27T02:58:05.424Z,21.15
2022-08-27T03:00:34.400Z,21.16
2022-08-27T03:03:03.261Z,21.16
2022-08-27T03:05:30.988Z,21.13
2022-08-27T03:07:59.961Z,21.16
2022-08-27T03:10:27.663Z,21.19
2022-08-27T03:12:55.616Z,21.11
2022-08-27T03:15:23.872Z,21.07
2022-08-27T03:18:10.370Z,21.01
2022-08-27T03:20:41.559Z,21.03
2022-08-27T03:23:10.352Z,21.08
2022-08-27T03:25:38.893Z,21.11
2022-08-27T03:28:20.617Z,21.06
2022-08-27T03:31:00.593Z,21.05
2022-08-27T03:33:34.649Z,21.06
2022-08-27T03:36:02.577Z,21.05
2022-08-27T03:38:30.292Z,21.05
2022-08-27T03:40:58.004Z,21.17
2022-08-27T03:43:26.110Z,21.10
2022-08-27T03:46:00.862Z,21.14
2022-08-27T03:48:32.276Z,21.18
2022-08-27T03:51:05.660Z,21.14
2022-08-27T03:53:34.047Z,21.20
2022-08-27T03:56:01.887Z,21.18
2022-08-27T03:58:29.828Z,21.17
2022-08-27T04:00:57.480Z,21.14
2022-08-27T04:03:25.458Z,21.15
2022-08-27T04:05:54.904Z,21.16
2022-08-27T04:08:23.542Z,21.13
2022-08-27T04:10:51.987Z,21.19
2022-08-27T04:13:20.070Z,21.18
2022-08-27T04:15:50.555Z,21.18
2022-08-27T04:18:18.959Z,21.19
2022-08-27T04:20:48.200Z,21.18
2022-08-27T04:23:17.092Z,21.09
2022-08-27T04:25:45.627Z,21.18
2022-08-27T04:28:15.368Z,21.20
2022-08-27T04:30:44.606Z,21.17
2022-08-27T04:33:13.963Z,21.19
2022-08-27T04:35:42.325Z,21.19
2022-08-27T04:38:10.185Z,21.23
2022-08-27T04:40:57.511Z,21.26
2022-08-27T04:43:28.308Z,21.18
2022-08-27T04:45:56.741Z,21.21
2022-08-27T04:48:25.887Z,21.18
2022-08-27T04:50:53.675Z,21.18
2022-08-27T04:53:22.110Z,21.12
2022-08-27T04:55:54.989Z,21.08
2022-08-27T04:58:24.628Z,21.14
2022-08-27T05:00:55.812Z,21.20
2022-08-27T05:03:24.746Z,21.26
2022-08-27T05:05:58.787Z,21.27
2022-08-27T05:08:26.592Z,21.32
2022-08-27T05:10:54.226Z,21.40
2022-08-27T05:13:24.293Z,21.51
2022-08-27T05:16:00.451Z,21.51
2022-08-27T05:18:28.471Z,21.55
2022-08-27T05:20:57.391Z,21.61
2022-08-27T05:23:25.861Z,21.69
2022-08-27T05:25:54.484Z,21.66
2022-08-27T05:28:28.049Z,21.74
2022-08-27T05:31:04.630Z,21.85
2022-08-27T05:33:33.152Z,21.97
2022-08-27T05:36:01.120Z,22.05
2022-08-27T05:38:30.759Z,22.11
2022-08-27T05:41:06.047Z,22.25
2022-08-27T05:43:34.196Z,22.35
2022-08-27T05:46:05.997Z,22.45
2022-08-27T05:48:36.192Z,22.48
2022-08-27T05:51:13.189Z,22.58
2022-08-27T05:53:41.704Z,22.71
2022-08-27T05:56:15.361Z,22.87
2022-08-27T05:59:02.008Z,23.04
2022-08-27T06:01:35.170Z,23.17
2022-08-27T06:04:04.576Z,23.27
2022-08-27T06:06:38.871Z,23.32
2022-08-27T06:09:07.948Z,23.43
2022-08-27T06:11:37.379Z,23.47
2022-08-27T06:14:05.927Z,23.48
2022-08-27T06:16:33.742Z,23.58
2022-08-27T06:19:01.771Z,23.61
2022-08-27T06:21:29.587Z,23.66
2022-08-27T06:23:57.613Z,23.73
2022-08-27T06:26:27.029Z,23.78
2022-08-27T06:28:55.759Z,23.79
2022-08-27T06:31:26.429Z,23.85
2022-08-27T06:34:02.846Z,23.96
2022-08-27T06:36:38.961Z,23.99
2022-08-27T06:39:08.167Z,24.00
2022-08-27T06:41:37.451Z,24.10
2022-08-27T06:44:13.293Z,24.26
2022-08-27T06:46:42.015Z,24.36
2022-08-27T06:49:11.674Z,24.51
2022-08-27T06:51:43.548Z,24.58
2022-08-27T06:54:14.671Z,24.67
2022-08-27T06:56:44.685Z,24.77
2022-08-27T06:59:15.935Z,24.90
2022-08-27T07:01:47.081Z,25.04
2022-08-27T07:04:20.528Z,25.15
2022-08-27T07:06:49.163Z,25.29
2022-08-27T07:09:17.699Z,25.38
2022-08-27T07:11:45.388Z,25.47
2022-08-27T07:14:13.386Z,25.51
2022-08-27T07:16:41.491Z,25.54
2022-08-27T07:19:09.692Z,25.55
2022-08-27T07:21:40.066Z,25.55
2022-08-27T07:24:09.432Z,25.50
2022-08-27T07:26:39.156Z,25.47
2022-08-27T07:29:09.110Z,25.51
2022-08-27T07:31:37.516Z,25.60
2022-08-27T07:34:06.574Z,25.68
2022-08-27T07:36:36.931Z,25.77
2022-08-27T07:39:06.036Z,25.71
2022-08-27T07:41:57.836Z,25.89
2022-08-27T07:44:28.059Z,26.02
2022-08-27T07:46:59.220Z,26.15
2022-08-27T07:49:28.847Z,26.30
2022-08-27T07:51:56.678Z,26.36
2022-08-27T07:54:25.347Z,26.36
2022-08-27T07:56:55.191Z,26.50
2022-08-27T07:59:27.551Z,26.67
2022-08-27T08:01:56.668Z,26.75
2022-08-27T08:04:25.051Z,26.83
2022-08-27T08:06:53.790Z,26.88
2022-08-27T08:09:23.950Z,26.96
2022-08-27T08:11:52.923Z,27.04
2022-08-27T08:14:21.344Z,27.07
2022-08-27T08:16:49.664Z,27.12
2022-08-27T08:19:17.912Z,27.20
2022-08-27T08:21:45.743Z,27.34
2022-08-27T08:24:13.352Z,27.49
2022-08-27T08:26:42.211Z,27.45
2022-08-27T08:29:13.349Z,27.59
2022-08-27T08:31:46.923Z,27.76
2022-08-27T08:34:20.009Z,27.61
2022-08-27T08:36:53.933Z,27.52
2022-08-27T08:39:23.727Z,27.60
2022-08-27T08:41:57.532Z,27.71
2022-08-27T08:44:48.939Z,27.81
2022-08-27T08:47:24.867Z,27.90
2022-08-27T08:50:29.123Z,28.02
2022-08-27T08:53:06.383Z,28.13
2022-08-27T08:55:48.890Z,28.24
2022-08-27T08:58:38.576Z,28.39
2022-08-27T09:01:09.805Z,28.57
2022-08-27T09:03:42.655Z,28.54
2022-08-27T09:06:10.820Z,28.59
2022-08-27T09:08:42.219Z,28.69
2022-08-27T09:11:36.033Z,28.75
2022-08-27T09:14:34.072Z,28.68
2022-08-27T09:17:03.677Z,28.96
2022-08-27T09:19:39.145Z,29.09
2022-08-27T09:22:22.148Z,29.09
2022-08-27T09:24:55.754Z,29.16
2022-08-27T09:27:25.424Z,29.13
2022-08-27T09:29:55.868Z,29.21
2022-08-27T09:32:27.268Z,29.37
2022-08-27T09:34:59.811Z,29.34
2022-08-27T09:37:34.596Z,29.37
2022-08-27T09:40:13.359Z,29.51
2022-08-27T09:42:50.876Z,29.66
2022-08-27T09:45:25.996Z,29.64
2022-08-27T09:48:02.877Z,29.53
2022-08-27T09:50:43.522Z,29.27
2022-08-27T09:53:27.368Z,29.24
2022-08-27T09:55:59.533Z,29.25
2022-08-27T09:58:32.098Z,29.43
2022-08-27T10:01:17.407Z,29.41
2022-08-27T10:03:45.652Z,29.37
2022-08-27T10:06:13.668Z,29.54
2022-08-27T10:08:47.944Z,29.63
2022-08-27T10:11:23.276Z,29.65
2022-08-27T10:14:21.371Z,29.69
2022-08-27T10:17:16.739Z,29.68
2022-08-27T10:20:10.104Z,29.70
2022-08-27T10:22:52.499Z,29.73
2022-08-27T10:25:59.111Z,29.75
2022-08-27T10:28:34.327Z,29.69
2022-08-27T10:31:26.400Z,29.75
2022-08-27T10:34:30.702Z,29.78
2022-08-27T10:37:12.651Z,30.05
2022-08-27T10:39:41.912Z,30.31
2022-08-27T10:42:32.843Z,30.08
2022-08-27T10:45:30.475Z,30.08
2022-08-27T10:48:07.337Z,30.07
2022-08-27T10:51:04.551Z,30.06
2022-08-27T10:53:58.651Z,29.88
2022-08-27T10:56:38.527Z,29.75
2022-08-27T10:59:36.947Z,29.76
2022-08-27T11:02:28.625Z,29.72
2022-08-27T11:05:18.120Z,29.70
2022-08-27T11:07:51.053Z,29.56
2022-08-27T11:10:24.583Z,29.77
2022-08-27T11:12:58.159Z,29.95
2022-08-27T11:15:30.708Z,30.07
2022-08-27T11:18:16.668Z,30.13
2022-08-27T11:20:55.956Z,30.30
2022-08-27T11:23:45.594Z,30.51
2022-08-27T11:26:14.278Z,30.71
2022-08-27T11:28:44.411Z,30.79
2022-08-27T11:31:30.651Z,30.82
2022-08-27T11:34:08.089Z,30.93
2022-08-27T11:36:58.891Z,31.04
2022-08-27T11:39:41.604Z,31.16
2022-08-27T11:42:28.061Z,31.16
2022-08-27T11:45:05.015Z,30.92
2022-08-27T11:47:34.088Z,30.68
2022-08-27T11:50:16.199Z,30.78
2022-08-27T11:53:08.315Z,31.03
2022-08-27T11:55:39.119Z,31.04
2022-08-27T11:58:19.462Z,31.24
2022-08-27T12:00:48.871Z,31.46
2022-08-27T12:03:20.082Z,31.43
2022-08-27T12:06:05.526Z,31.35
2022-08-27T12:08:35.784Z,31.32
2022-08-27T12:11:33.957Z,31.08
2022-08-27T12:14:04.845Z,31.16
2022-08-27T12:16:37.715Z,31.04
2022-08-27T12:19:16.010Z,31.12
2022-08-27T12:22:07.021Z,31.07
2022-08-27T12:24:37.641Z,30.88
2022-08-27T12:27:28.468Z,30.98
2022-08-27T12:30:28.166Z,31.18
2022-08-27T12:32:59.851Z,31.32
2022-08-27T12:35:44.274Z,31.39
2022-08-27T12:38:40.166Z,31.34
2022-08-27T12:41:11.420Z,31.24
2022-08-27T12:43:43.554Z,31.00
2022-08-27T12:46:16.223Z,31.19
2022-08-27T12:48:47.478Z,31.33
2022-08-27T12:51:27.260Z,31.57
2022-08-27T12:54:13.531Z,31.75
2022-08-27T12:57:14.665Z,31.54
2022-08-27T13:00:00.375Z,31.48
2022-08-27T13:03:07.163Z,31.43
2022-08-27T13:05:41.267Z,31.25
2022-08-27T13:08:26.700Z,31.02
2022-08-27T13:10:55.213Z,30.93
2022-08-27T13:13:25.383Z,30.94
2022-08-27T13:15:56.745Z,30.91
2022-08-27T13:18:29.548Z,30.73
2022-08-27T13:21:13.862Z,30.65
2022-08-27T13:23:49.751Z,30.56
2022-08-27T13:26:23.476Z,30.46
2022-08-27T13:28:52.757Z,30.40
2022-08-27T13:31:21.545Z,30.52
2022-08-27T13:33:50.049Z,30.58
2022-08-27T13:36:32.035Z,30.59
2022-08-27T13:39:03.094Z,30.59
2022-08-27T13:41:38.632Z,30.47
2022-08-27T13:44:31.778Z,30.45
2022-08-27T13:47:22.624Z,30.48
2022-08-27T13:49:50.865Z,30.39
2022-08-27T13:52:29.968Z,30.33
2022-08-27T13:55:18.343Z,30.39
2022-08-27T13:57:49.186Z,30.43
2022-08-27T14:00:27.343Z,30.31
2022-08-27T14:02:56.641Z,30.15
2022-08-27T14:05:24.506Z,30.07
2022-08-27T14:08:14.249Z,29.86
2022-08-27T14:10:47.727Z,29.81
2022-08-27T14:13:18.213Z,29.81
2022-08-27T14:15:52.568Z,29.75
2022-08-27T14:18:42.491Z,29.73
2022-08-27T14:21:16.006Z,29.64
2022-08-27T14:23:43.660Z,29.59
2022-08-27T14:26:11.351Z,29.58
2022-08-27T14:28:39.116Z,29.50
2022-08-27T14:31:06.827Z,29.41
2022-08-27T14:33:34.562Z,29.35
2022-08-27T14:36:02.362Z,29.31
2022-08-27T14:38:32.112Z,29.22
2022-08-27T14:41:00.157Z,29.17
2022-08-27T14:43:28.032Z,29.16
2022-08-27T14:45:57.313Z,29.13
2022-08-27T14:48:32.214Z,29.16
2022-08-27T14:51:13.489Z,29.12
2022-08-27T14:53:41.212Z,29.08
2022-08-27T14:56:08.971Z,29.07
2022-08-27T14:58:37.301Z,29.07
2022-08-27T15:01:05.628Z,29.07
2022-08-27T15:03:39.136Z,29.05
2022-08-27T15:06:07.299Z,29.03
2022-08-27T15:08:36.218Z,28.99
2022-08-27T15:11:05.450Z,28.93
2022-08-27T15:13:33.057Z,28.88
2022-08-27T15:16:00.987Z,28.85
2022-08-27T15:18:29.850Z,28.79
2022-08-27T15:20:57.547Z,28.73
2022-08-27T15:23:25.168Z,28.73
2022-08-27T15:25:52.804Z,28.67
2022-08-27T15:28:20.534Z,28.64
2022-08-27T15:30:48.274Z,28.62
2022-08-27T15:33:16.116Z,28.60
2022-08-27T15:35:43.888Z,28.58
2022-08-27T15:38:11.806Z,28.55
2022-08-27T15:40:39.996Z,28.56
2022-08-27T15:43:08.656Z,28.47
2022-08-27T15:45:36.859Z,28.41
2022-08-27T15:48:04.989Z,28.37
2022-08-27T15:50:32.806Z,28.31
2022-08-27T15:53:04.366Z,28.25
2022-08-27T15:55:35.860Z,28.21
2022-08-27T15:58:04.942Z,28.23
2022-08-27T16:00:34.809Z,28.23
2022-08-27T16:03:06.903Z,28.24
2022-08-27T16:05:38.228Z,28.19
2022-08-27T16:08:08.435Z,28.25
2022-08-27T16:10:37.980Z,28.28
2022-08-27T16:13:05.916Z,28.26
2022-08-27T16:15:39.549Z,28.31
2022-08-27T16:18:08.526Z,28.23
2022-08-27T16:20:36.907Z,28.19
2022-08-27T16:23:05.029Z,28.17
2022-08-27T16:25:32.725Z,28.12
2022-08-27T16:28:01.756Z,28.11
2022-08-27T16:30:30.373Z,28.09
2022-08-27T16:32:58.128Z,28.05
2022-08-27T16:35:25.880Z,28.02
2022-08-27T16:37:54.373Z,27.96
2022-08-27T16:40:22.580Z,27.92
2022-08-27T16:42:52.276Z,27.90
2022-08-27T16:45:25.212Z,27.85
2022-08-27T16:48:11.626Z,27.78
2022-08-27T16:50:41.604Z,27.74
2022-08-27T16:53:15.624Z,27.82
2022-08-27T16:55:45.249Z,27.94
2022-08-27T16:58:28.408Z,27.91
2022-08-27T17:01:01.472Z,27.88
2022-08-27T17:03:30.689Z,27.84
2022-08-27T17:05:59.018Z,27.73
2022-08-27T17:08:27.685Z,27.64
2022-08-27T17:10:56.997Z,27.58
2022-08-27T17:13:28.508Z,27.53
2022-08-27T17:15:57.319Z,27.53
2022-08-27T17:18:27.819Z,27.49
2022-08-27T17:20:56.543Z,27.54
2022-08-27T17:23:39.764Z,27.56
2022-08-27T17:26:09.424Z,27.52
2022-08-27T17:28:39.857Z,27.51
2022-08-27T17:31:09.594Z,27.50
2022-08-27T17:33:40.530Z,27.52
2022-08-27T17:36:09.934Z,27.50
2022-08-27T17:38:39.505Z,27.51
2022-08-27T17:41:33.894Z,27.48
2022-08-27T17:44:24.517Z,27.41
2022-08-27T17:46:53.912Z,27.38
2022-08-27T17:49:21.828Z,27.35
2022-08-27T17:51:54.544Z,27.36
2022-08-27T17:54:25.036Z,27.36
2022-08-27T17:56:53.174Z,27.37
2022-08-27T17:59:20.867Z,27.37
2022-08-27T18:01:48.677Z,27.35
2022-08-27T18:04:16.497Z,27.33
2022-08-27T18:06:45.260Z,27.38
2022-08-27T18:09:16.004Z,27.34
2022-08-27T18:11:45.253Z,27.24
2022-08-27T18:14:18.252Z,27.18
2022-08-27T18:16:46.602Z,27.18
2022-08-27T18:19:14.350Z,27.09
2022-08-27T18:21:46.384Z,27.05
2022-08-27T18:24:15.928Z,27.01
2022-08-27T18:26:44.945Z,26.96
2022-08-27T18:29:15.235Z,26.95
2022-08-27T18:31:43.390Z,26.94
2022-08-27T18:34:11.220Z,26.91
2022-08-27T18:36:39.469Z,26.90
2022-08-27T18:39:07.884Z,26.94
2022-08-27T18:41:35.747Z,26.91
2022-08-27T18:44:04.627Z,26.91
2022-08-27T18:46:45.092Z,26.90
2022-08-27T18:49:12.746Z,26.87
2022-08-27T18:51:43.057Z,26.87
2022-08-27T18:54:11.344Z,26.77
2022-08-27T18:56:39.194Z,26.72
2022-08-27T18:59:07.036Z,26.67
2022-08-27T19:01:34.841Z,26.62
2022-08-27T19:04:03.920Z,26.63
2022-08-27T19:06:31.798Z,26.65
2022-08-27T19:08:59.613Z,26.60
2022-08-27T19:11:29.345Z,26.58
2022-08-27T19:13:57.418Z,26.53
2022-08-27T19:16:43.394Z,26.48
2022-08-27T19:19:14.173Z,26.42
2022-08-27T19:21:42.344Z,26.37
2022-08-27T19:24:11.375Z,26.34
2022-08-27T19:26:39.915Z,26.30
2022-08-27T19:29:08.192Z,26.28
2022-08-27T19:31:38.177Z,26.25
2022-08-27T19:34:08.211Z,26.24
2022-08-27T19:36:40.867Z,26.23
2022-08-27T19:39:11.760Z,26.22
2022-08-27T19:41:40.011Z,26.22
2022-08-27T19:44:08.040Z,26.24
2022-08-27T19:46:36.715Z,26.25
2022-08-27T19:49:04.626Z,26.22
2022-08-27T19:51:32.701Z,26.23
2022-08-27T19:54:00.399Z,26.22
2022-08-27T19:56:29.036Z,26.21
2022-08-27T19:58:59.968Z,26.18
2022-08-27T20:01:33.853Z,26.15
2022-08-27T20:04:02.028Z,26.10
2022-08-27T20:06:31.460Z,26.10
2022-08-27T20:09:05.685Z,26.07
2022-08-27T20:11:33.644Z,26.07
2022-08-27T20:14:01.472Z,26.05
2022-08-27T20:16:29.233Z,26.04
2022-08-27T20:19:00.480Z,26.04
2022-08-27T20:21:28.659Z,26.03
2022-08-27T20:23:56.331Z,26.01
2022-08-27T20:26:24.892Z,25.98
2022-08-27T20:28:53.045Z,25.95
2022-08-27T20:31:20.813Z,25.92
2022-08-27T20:33:49.022Z,25.93
2022-08-27T20:36:16.737Z,25.89
2022-08-27T20:38:44.640Z,25.88
2022-08-27T20:41:12.327Z,25.83
2022-08-27T20:43:40.203Z,25.82
2022-08-27T20:46:11.003Z,25.79
2022-08-27T20:48:39.183Z,25.78
2022-08-27T20:51:07.095Z,25.73
2022-08-27T20:53:35.241Z,25.69
2022-08-27T20:56:03.139Z,25.65
2022-08-27T20:58:49.688Z,25.61
2022-08-27T21:01:17.579Z,25.55
2022-08-27T21:03:45.272Z,25.49
2022-08-27T21:06:12.985Z,25.50
2022-08-27T21:08:41.162Z,25.43
2022-08-27T21:11:12.229Z,25.31
2022-08-27T21:13:55.211Z,25.28
2022-08-27T21:16:24.714Z,25.22
2022-08-27T21:18:53.808Z,25.18
2022-08-27T21:21:22.238Z,25.09
2022-08-27T21:23:49.844Z,25.05
2022-08-27T21:26:17.528Z,25.05
2022-08-27T21:28:45.098Z,25.02
2022-08-27T21:31:12.944Z,25.02
2022-08-27T21:33:41.076Z,24.96
2022-08-27T21:36:11.940Z,24.92
2022-08-27T21:38:40.945Z,24.95
2022-08-27T21:41:09.297Z,24.94
2022-08-27T21:43:38.990Z,24.90
2022-08-27T21:46:07.267Z,24.84
2022-08-27T21:48:36.108Z,24.83
2022-08-27T21:51:08.854Z,24.79
2022-08-27T21:53:37.947Z,24.75
2022-08-27T21:56:06.173Z,24.72
2022-08-27T21:58:34.221Z,24.63
2022-08-27T22:01:04.575Z,24.53
2022-08-27T22:03:34.730Z,24.48
2022-08-27T22:06:06.745Z,24.44
2022-08-27T22:08:35.747Z,24.44
2022-08-27T22:11:03.679Z,24.45
2022-08-27T22:13:33.416Z,24.43
2022-08-27T22:16:01.873Z,24.45
2022-08-27T22:18:30.224Z,24.47
2022-08-27T22:20:58.945Z,24.41
2022-08-27T22:23:27.369Z,24.37
2022-08-27T22:25:55.182Z,24.38
2022-08-27T22:28:23.260Z,24.37
2022-08-27T22:30:50.869Z,24.28
2022-08-27T22:33:19.038Z,24.10
2022-08-27T22:35:47.047Z,24.02
2022-08-27T22:38:14.853Z,23.95
2022-08-27T22:40:42.731Z,24.02
2022-08-27T22:43:10.560Z,24.09
2022-08-27T22:45:38.322Z,24.01
2022-08-27T22:48:06.073Z,24.07
2022-08-27T22:50:33.747Z,24.02
2022-08-27T22:53:04.123Z,24.01
2022-08-27T22:55:31.881Z,23.95
2022-08-27T22:58:01.400Z,23.90
2022-08-27T23:00:31.401Z,23.78
2022-08-27T23:02:59.791Z,23.72
2022-08-27T23:05:28.274Z,23.60
2022-08-27T23:08:09.134Z,23.56
2022-08-27T23:10:38.410Z,23.61
2022-08-27T23:13:06.963Z,23.54
2022-08-27T23:15:34.939Z,23.54
2022-08-27T23:18:02.702Z,23.62
2022-08-27T23:20:31.132Z,23.73
2022-08-27T23:22:58.916Z,23.85
2022-08-27T23:25:47.254Z,23.89
2022-08-27T23:28:15.817Z,23.92
2022-08-27T23:30:45.011Z,23.90
2022-08-27T23:33:13.400Z,23.94
2022-08-27T23:35:44.581Z,23.92
2022-08-27T23:38:12.402Z,23.94
2022-08-27T23:40:41.062Z,23.91
2022-08-27T23:43:08.907Z,23.85
2022-08-27T23:45:40.468Z,23.84
2022-08-27T23:48:08.726Z,23.86
2022-08-27T23:50:37.276Z,23.83
2022-08-27T23:53:06.465Z,23.82
2022-08-27T23:55:34.771Z,23.86
2022-08-27T23:58:02.895Z,23.85
